Time;durP1;ratioP1;P1;durP2;ratioP2;P2;SDS_P1;SDS_P2;PMS_P1;PMS_P2;Temp;Humidity;BMP_temperature;BMP_pressure;BME280_temperature;BME280_humidity;BME280_pressure;Samples;Min_cycle;Max_cycle;Signal;HPM_P1;HPM_P2
2021/01/21 00:00:52;;;;;;;7.18;1.35;;;8.60;99.40;;;;;;4929516;29;20107;-73
2021/01/21 00:03:18;;;;;;;6.55;1.02;;;8.50;99.50;;;;;;4931148;29;20498;-73
2021/01/21 00:05:44;;;;;;;7.00;0.98;;;8.60;99.40;;;;;;4931039;29;20055;-73
2021/01/21 00:08:11;;;;;;;4.82;1.13;;;8.50;99.20;;;;;;4930843;29;20048;-73
2021/01/21 00:10:37;;;;;;;3.63;0.90;;;8.60;99.10;;;;;;4929143;29;20161;-73
2021/01/21 00:13:03;;;;;;;4.90;1.13;;;8.60;98.90;;;;;;4925286;29;20087;-72
2021/01/21 00:15:30;;;;;;;4.10;1.27;;;8.60;99.10;;;;;;4932346;29;20055;-72
2021/01/21 00:17:56;;;;;;;3.45;1.25;;;8.70;99.00;;;;;;4945930;28;20064;-72
2021/01/21 00:20:23;;;;;;;5.20;1.13;;;8.70;99.10;;;;;;4928293;29;20413;-73
2021/01/21 00:22:49;;;;;;;5.47;1.13;;;8.70;98.80;;;;;;4931267;29;20059;-72
2021/01/21 00:25:16;;;;;;;4.30;1.08;;;8.60;99.40;;;;;;4930935;29;20055;-73
2021/01/21 00:27:42;;;;;;;5.10;1.02;;;8.70;98.80;;;;;;4929682;29;20079;-72
2021/01/21 00:30:10;;;;;;;3.10;1.00;;;8.60;99.10;;;;;;4931651;29;20079;-73
2021/01/21 00:32:36;;;;;;;6.53;1.17;;;8.60;99.10;;;;;;4932063;29;20126;-72
2021/01/21 00:35:04;;;;;;;4.78;1.27;;;8.60;99.70;;;;;;4931795;29;20450;-72
2021/01/21 00:37:30;;;;;;;7.38;1.38;;;8.50;99.50;;;;;;4928687;29;20421;-73
2021/01/21 00:39:57;;;;;;;5.22;1.10;;;8.60;99.70;;;;;;4929183;29;20103;-72
2021/01/21 00:42:23;;;;;;;2.20;0.60;;;8.60;99.90;;;;;;4931989;29;20224;-72
2021/01/21 00:44:49;;;;;;;4.25;0.90;;;8.60;99.40;;;;;;4931863;29;20047;-73
2021/01/21 00:47:16;;;;;;;3.80;0.95;;;8.50;99.90;;;;;;4934570;28;20091;-72
2021/01/21 00:49:42;;;;;;;4.88;0.70;;;8.70;99.60;;;;;;4931688;29;20486;-72
2021/01/21 00:52:08;;;;;;;3.28;0.77;;;8.70;99.90;;;;;;4931627;29;20081;-72
2021/01/21 00:54:35;;;;;;;3.65;0.77;;;8.80;99.50;;;;;;4928863;29;20455;-72
2021/01/21 00:57:01;;;;;;;2.17;0.70;;;8.80;99.60;;;;;;4924383;29;20104;-72
2021/01/21 00:59:28;;;;;;;4.20;0.70;;;8.80;99.90;;;;;;4931959;29;20069;-72
2021/01/21 01:01:54;;;;;;;3.88;1.10;;;8.90;99.70;;;;;;4931440;29;20138;-73
2021/01/21 01:04:20;;;;;;;5.65;0.80;;;8.90;99.90;;;;;;4931373;29;20063;-72
2021/01/21 01:06:47;;;;;;;6.35;0.70;;;8.90;99.70;;;;;;4930580;29;20051;-72
2021/01/21 01:09:13;;;;;;;3.47;1.10;;;8.90;99.90;;;;;;4931188;29;20127;-72
2021/01/21 01:11:39;;;;;;;5.43;0.95;;;9.00;99.90;;;;;;4930950;29;20071;-72
2021/01/21 01:14:06;;;;;;;5.60;0.70;;;8.90;99.70;;;;;;4931889;29;20150;-72
2021/01/21 01:16:33;;;;;;;4.32;0.63;;;9.00;99.40;;;;;;4934602;29;20114;-72
2021/01/21 01:18:59;;;;;;;3.30;0.60;;;9.00;99.30;;;;;;4934293;29;20082;-72
2021/01/21 01:21:26;;;;;;;4.50;0.70;;;9.20;99.40;;;;;;4935052;29;20127;-72
2021/01/21 01:23:52;;;;;;;1.25;0.40;;;9.10;99.60;;;;;;4929762;29;20138;-72
2021/01/21 01:26:23;;;;;;;5.75;0.60;;;9.20;98.80;;;;;;4930009;29;20127;-72
2021/01/21 01:28:49;;;;;;;2.30;0.60;;;9.30;98.30;;;;;;4930749;29;20048;-72
2021/01/21 01:31:16;;;;;;;2.50;0.68;;;9.50;98.70;;;;;;4934583;29;20462;-72
2021/01/21 01:33:43;;;;;;;3.55;0.90;;;9.40;98.20;;;;;;4935605;29;20047;-73
2021/01/21 01:36:10;;;;;;;3.28;0.70;;;9.40;98.20;;;;;;4934587;29;20454;-72
2021/01/21 01:38:37;;;;;;;4.75;0.82;;;9.50;98.30;;;;;;4931927;29;20095;-72
2021/01/21 01:41:04;;;;;;;2.80;0.73;;;9.40;98.20;;;;;;4936492;29;20059;-72
2021/01/21 01:43:30;;;;;;;2.65;0.70;;;9.40;97.90;;;;;;4934448;28;20090;-72
2021/01/21 01:45:57;;;;;;;3.45;0.70;;;9.40;98.40;;;;;;4950728;28;20059;-72
2021/01/21 01:48:24;;;;;;;5.18;0.75;;;9.70;97.00;;;;;;4934522;29;20048;-73
2021/01/21 01:50:50;;;;;;;1.90;0.55;;;9.60;97.60;;;;;;4933276;29;20084;-71
2021/01/21 01:53:16;;;;;;;1.75;0.45;;;9.60;97.50;;;;;;4942819;29;20145;-72
2021/01/21 01:55:43;;;;;;;2.53;0.68;;;9.60;97.50;;;;;;4934605;29;20054;-72
2021/01/21 01:58:10;;;;;;;4.72;0.80;;;9.50;97.60;;;;;;4933105;29;20094;-72
2021/01/21 02:00:37;;;;;;;3.22;0.60;;;9.50;98.10;;;;;;4941455;29;20107;-72
2021/01/21 02:03:03;;;;;;;2.65;0.60;;;9.60;97.30;;;;;;4933958;28;20054;-72
2021/01/21 02:05:30;;;;;;;1.70;0.55;;;9.70;97.30;;;;;;4934318;29;20055;-71
2021/01/21 02:07:57;;;;;;;2.13;0.60;;;9.80;96.60;;;;;;4941448;29;20150;-72
2021/01/21 02:10:24;;;;;;;3.65;0.50;;;9.70;97.10;;;;;;4936069;28;20497;-72
2021/01/21 02:13:11;;;;;;;2.63;0.70;;;9.80;96.60;;;;;;4948334;28;20280;-72
2021/01/21 02:16:06;;;;;;;3.00;0.60;;;9.80;96.80;;;;;;4939662;29;20079;-72
2021/01/21 02:18:58;;;;;;;2.65;0.50;;;9.70;96.60;;;;;;4933052;29;20150;-71
2021/01/21 02:21:57;;;;;;;1.88;0.47;;;9.80;96.40;;;;;;4937625;29;20131;-72
2021/01/21 02:24:58;;;;;;;3.78;0.57;;;9.60;96.80;;;;;;4935084;29;20179;-72
2021/01/21 02:27:50;;;;;;;2.13;0.60;;;9.50;97.10;;;;;;4937166;29;20051;-71
2021/01/21 02:30:30;;;;;;;3.92;0.88;;;9.70;96.90;;;;;;4912542;29;20051;-71
2021/01/21 02:33:30;;;;;;;2.08;0.52;;;9.70;96.70;;;;;;4934475;29;20500;-72
2021/01/21 02:36:02;;;;;;;2.15;0.50;;;9.80;96.50;;;;;;4940519;28;20138;-74
2021/01/21 02:38:31;;;;;;;2.90;0.50;;;9.80;96.40;;;;;;4941422;29;20075;-71
2021/01/21 02:40:59;;;;;;;2.95;0.63;;;9.60;96.80;;;;;;4933703;29;20123;-71
2021/01/21 02:43:26;;;;;;;1.83;0.50;;;9.60;97.10;;;;;;4933792;29;20546;-71
2021/01/21 02:45:52;;;;;;;3.03;0.40;;;9.70;97.20;;;;;;4939917;29;20074;-71
2021/01/21 02:48:19;;;;;;;1.85;0.50;;;9.60;97.10;;;;;;4933109;29;20150;-71
2021/01/21 02:50:45;;;;;;;3.45;0.50;;;9.80;96.80;;;;;;4950586;28;20071;-72
2021/01/21 02:53:12;;;;;;;0.88;0.40;;;9.80;96.80;;;;;;4929271;29;20533;-71
2021/01/21 02:55:53;;;;;;;1.63;0.60;;;9.80;96.70;;;;;;4931929;29;20044;-72
2021/01/21 02:58:40;;;;;;;3.78;0.70;;;10.00;96.50;;;;;;4931102;29;20561;-72
2021/01/21 03:01:08;;;;;;;3.78;0.55;;;9.90;96.50;;;;;;4932894;29;20448;-71
2021/01/21 03:03:37;;;;;;;5.55;0.55;;;9.90;96.70;;;;;;4933486;29;20138;-71
2021/01/21 03:06:06;;;;;;;1.10;0.40;;;9.90;97.00;;;;;;4931701;29;20135;-72
2021/01/21 03:08:33;;;;;;;0.85;0.43;;;9.90;96.80;;;;;;4937111;29;20510;-73
2021/01/21 03:11:10;;;;;;;3.25;0.57;;;10.00;96.70;;;;;;4933572;29;20126;-71
2021/01/21 03:13:44;;;;;;;4.97;0.63;;;10.00;96.80;;;;;;4932935;29;20509;-72
2021/01/21 03:16:11;;;;;;;15.57;0.88;;;10.00;97.10;;;;;;4934407;29;20134;-71
2021/01/21 03:18:37;;;;;;;2.85;0.38;;;10.00;97.10;;;;;;4939185;29;20445;-72
2021/01/21 03:21:04;;;;;;;2.53;0.50;;;10.00;97.00;;;;;;4943345;28;20052;-71
2021/01/21 03:23:30;;;;;;;3.92;0.60;;;10.10;96.90;;;;;;4935308;29;20494;-72
2021/01/21 03:25:57;;;;;;;2.50;0.50;;;10.00;97.40;;;;;;4936225;29;20044;-72
2021/01/21 03:28:23;;;;;;;6.95;0.95;;;10.00;97.50;;;;;;4932427;29;20126;-72
2021/01/21 03:30:50;;;;;;;2.30;0.43;;;10.10;97.50;;;;;;4931262;29;20052;-71
2021/01/21 03:33:16;;;;;;;1.10;0.40;;;10.00;97.60;;;;;;4932896;29;20048;-72
2021/01/21 03:35:43;;;;;;;2.20;0.40;;;9.90;97.90;;;;;;4932597;29;20048;-72
2021/01/21 03:38:09;;;;;;;3.15;0.50;;;9.90;98.00;;;;;;4954288;28;20083;-72
2021/01/21 03:40:36;;;;;;;2.08;0.40;;;10.00;98.00;;;;;;4937945;28;20051;-72
2021/01/21 03:43:02;;;;;;;2.03;0.60;;;9.90;98.20;;;;;;4932443;29;20055;-72
2021/01/21 03:45:29;;;;;;;1.75;0.55;;;10.00;98.50;;;;;;4935678;29;20110;-72
2021/01/21 03:47:55;;;;;;;1.40;0.57;;;9.90;99.10;;;;;;4932814;28;20133;-73
2021/01/21 03:50:21;;;;;;;2.45;0.52;;;9.80;99.90;;;;;;4936170;29;20093;-72
2021/01/21 03:52:48;;;;;;;2.40;0.57;;;9.60;99.90;;;;;;4932979;29;20063;-73
2021/01/21 03:55:14;;;;;;;4.00;0.77;;;9.50;99.90;;;;;;4937894;29;20047;-73
2021/01/21 03:57:40;;;;;;;3.50;0.40;;;9.40;99.90;;;;;;4937125;28;20051;-72
2021/01/21 04:00:07;;;;;;;2.13;0.70;;;9.40;99.90;;;;;;4933038;28;20130;-72
2021/01/21 04:02:33;;;;;;;4.00;0.63;;;9.30;99.90;;;;;;4930773;29;20056;-72
2021/01/21 04:05:00;;;;;;;5.10;0.50;;;9.20;99.90;;;;;;4932345;29;20249;-72
2021/01/21 04:07:26;;;;;;;2.92;0.50;;;9.30;99.90;;;;;;4929001;29;20106;-72
2021/01/21 04:09:52;;;;;;;1.77;0.40;;;9.20;99.90;;;;;;4941098;28;20083;-72
2021/01/21 04:12:19;;;;;;;1.25;0.40;;;9.10;99.90;;;;;;4930972;29;20570;-72
2021/01/21 04:14:45;;;;;;;4.57;0.57;;;9.20;99.90;;;;;;4929459;29;20043;-73
2021/01/21 04:17:12;;;;;;;1.33;0.40;;;9.20;99.90;;;;;;4930126;29;20506;-71
2021/01/21 04:19:38;;;;;;;3.40;0.50;;;9.10;99.90;;;;;;4936910;29;20478;-72
2021/01/21 04:22:04;;;;;;;1.80;0.50;;;9.10;99.90;;;;;;4943090;29;20083;-73
2021/01/21 04:24:31;;;;;;;2.25;0.70;;;9.10;99.90;;;;;;4932157;29;20439;-72
2021/01/21 04:26:57;;;;;;;2.90;0.50;;;9.10;99.90;;;;;;4932850;28;20451;-72
2021/01/21 04:29:23;;;;;;;2.05;0.50;;;9.20;99.90;;;;;;4932272;29;20052;-72
2021/01/21 04:31:50;;;;;;;1.35;0.55;;;9.20;99.90;;;;;;4937432;29;20275;-72
2021/01/21 04:34:16;;;;;;;2.42;0.57;;;9.30;99.90;;;;;;4931057;29;20051;-73
2021/01/21 04:36:43;;;;;;;0.85;0.40;;;9.40;99.90;;;;;;4934170;29;20131;-72
2021/01/21 04:39:09;;;;;;;3.50;0.65;;;9.50;99.90;;;;;;4930334;29;20047;-73
2021/01/21 04:41:36;;;;;;;3.58;0.52;;;9.50;99.90;;;;;;4938228;29;20099;-72
2021/01/21 04:44:03;;;;;;;2.13;0.50;;;9.70;99.90;;;;;;4930229;29;20047;-72
2021/01/21 04:46:29;;;;;;;3.65;0.50;;;9.50;99.90;;;;;;4932338;29;20066;-72
2021/01/21 04:48:58;;;;;;;1.20;0.40;;;9.50;99.90;;;;;;4945183;28;20047;-72
2021/01/21 04:51:26;;;;;;;4.90;0.52;;;9.60;99.90;;;;;;4941119;29;20087;-72
2021/01/21 04:53:58;;;;;;;3.85;0.50;;;9.60;99.90;;;;;;4931060;29;20146;-72
2021/01/21 04:56:31;;;;;;;3.83;0.50;;;9.60;99.90;;;;;;4931236;29;20047;-73
2021/01/21 04:59:02;;;;;;;3.65;0.50;;;9.70;99.90;;;;;;4931735;29;20107;-72
2021/01/21 05:01:30;;;;;;;1.95;0.68;;;9.70;99.90;;;;;;4941578;28;20087;-72
2021/01/21 05:03:57;;;;;;;2.35;0.73;;;9.60;99.90;;;;;;4929707;29;20427;-71
2021/01/21 05:06:23;;;;;;;3.88;0.60;;;9.80;99.90;;;;;;4932950;28;20048;-72
2021/01/21 05:08:51;;;;;;;4.22;0.88;;;9.70;99.90;;;;;;4913560;29;20123;-72
2021/01/21 05:11:17;;;;;;;3.65;0.50;;;9.70;99.90;;;;;;4931199;29;20055;-72
2021/01/21 05:13:44;;;;;;;2.47;0.60;;;9.70;99.90;;;;;;4931452;29;20491;-72
2021/01/21 05:16:10;;;;;;;3.28;0.50;;;9.70;99.90;;;;;;4928998;29;20590;-72
2021/01/21 05:18:37;;;;;;;2.70;0.57;;;9.80;99.90;;;;;;4931127;29;20051;-72
2021/01/21 05:21:07;;;;;;;1.67;0.70;;;9.70;99.90;;;;;;4930360;29;20067;-72
2021/01/21 05:23:33;;;;;;;3.08;0.50;;;9.60;99.90;;;;;;4931364;29;20062;-72
2021/01/21 05:26:00;;;;;;;1.92;0.55;;;9.60;99.90;;;;;;4936461;29;20159;-73
2021/01/21 05:28:27;;;;;;;2.03;0.50;;;9.60;99.90;;;;;;4930779;29;20500;-72
2021/01/21 05:30:58;;;;;;;2.90;0.65;;;9.70;99.90;;;;;;4929763;29;20039;-72
2021/01/21 05:33:28;;;;;;;4.78;0.65;;;9.70;99.90;;;;;;4935373;28;20058;-73
2021/01/21 05:35:56;;;;;;;7.43;0.65;;;9.70;99.90;;;;;;4932227;29;20083;-72
2021/01/21 05:38:22;;;;;;;1.58;0.45;;;9.70;99.90;;;;;;4934774;28;20398;-72
2021/01/21 05:40:50;;;;;;;1.80;0.50;;;9.70;99.90;;;;;;4930194;29;20169;-72
2021/01/21 05:43:18;;;;;;;6.13;0.60;;;9.60;99.90;;;;;;4931752;29;20231;-72
2021/01/21 05:45:45;;;;;;;1.67;0.50;;;9.70;99.90;;;;;;4936424;29;20487;-72
2021/01/21 05:48:14;;;;;;;2.05;0.40;;;9.60;99.90;;;;;;4935999;29;20121;-71
2021/01/21 05:50:41;;;;;;;3.72;0.60;;;9.80;99.90;;;;;;4947042;28;20471;-72
2021/01/21 05:53:09;;;;;;;1.65;0.50;;;9.70;99.90;;;;;;4932800;29;20498;-71
2021/01/21 05:55:38;;;;;;;1.52;0.57;;;9.60;99.90;;;;;;4926920;29;20375;-72
2021/01/21 05:58:06;;;;;;;1.73;0.60;;;9.90;99.90;;;;;;4931382;29;20072;-72
2021/01/21 06:00:33;;;;;;;2.45;0.70;;;9.80;99.90;;;;;;4930541;29;20522;-72
2021/01/21 06:03:00;;;;;;;5.97;0.60;;;9.80;99.90;;;;;;4943328;29;20132;-72
2021/01/21 06:05:27;;;;;;;3.63;1.00;;;9.90;99.90;;;;;;4943188;28;20459;-71
2021/01/21 06:07:54;;;;;;;4.50;0.70;;;10.00;99.90;;;;;;4932601;29;20067;-72
2021/01/21 06:10:22;;;;;;;1.23;0.50;;;9.90;99.90;;;;;;4934166;29;20534;-72
2021/01/21 06:12:53;;;;;;;2.60;0.80;;;9.90;99.90;;;;;;4936763;29;20479;-71
2021/01/21 06:15:20;;;;;;;2.25;0.65;;;10.00;99.90;;;;;;4931416;29;20048;-72
2021/01/21 06:17:49;;;;;;;1.52;0.50;;;9.90;99.90;;;;;;4936956;28;20051;-72
2021/01/21 06:20:17;;;;;;;3.78;0.40;;;9.90;99.90;;;;;;4933261;29;20534;-72
2021/01/21 06:22:45;;;;;;;8.35;0.80;;;9.90;99.90;;;;;;4948703;29;20055;-71
2021/01/21 06:25:17;;;;;;;5.10;0.80;;;9.80;99.90;;;;;;4945276;28;20150;-72
2021/01/21 06:27:45;;;;;;;1.27;0.40;;;9.90;99.90;;;;;;4935849;28;20119;-72
2021/01/21 06:30:20;;;;;;;2.42;0.47;;;9.90;99.90;;;;;;4933952;29;20115;-71
2021/01/21 06:32:56;;;;;;;4.63;0.68;;;9.90;99.90;;;;;;4966977;28;20463;-72
2021/01/21 06:35:28;;;;;;;2.97;0.60;;;9.90;99.90;;;;;;4938508;29;20106;-71
2021/01/21 06:37:59;;;;;;;3.50;0.50;;;9.90;99.90;;;;;;4928685;29;20049;-73
2021/01/21 06:40:27;;;;;;;1.58;0.47;;;9.80;99.90;;;;;;4933206;29;20458;-72
2021/01/21 06:43:10;;;;;;;1.20;0.32;;;9.70;99.90;;;;;;4947237;28;20114;-72
2021/01/21 06:45:38;;;;;;;;;;;9.70;99.90;;;;;;4934526;29;20047;-72
2021/01/21 06:48:06;;;;;;;4.15;0.60;;;9.70;99.90;;;;;;4937407;28;20074;-72
2021/01/21 06:50:33;;;;;;;2.05;0.50;;;9.60;99.90;;;;;;4941112;29;20478;-72
2021/01/21 06:53:03;;;;;;;2.35;0.60;;;9.60;99.90;;;;;;4934284;29;20048;-71
2021/01/21 06:55:31;;;;;;;1.23;0.40;;;9.60;99.90;;;;;;4931626;29;20506;-72
2021/01/21 06:57:57;;;;;;;1.00;0.30;;;9.60;99.90;;;;;;4932722;29;20514;-71
2021/01/21 07:00:44;;;;;;;1.48;0.55;;;9.60;99.90;;;;;;4938084;29;20098;-72
2021/01/21 07:03:30;;;;;;;1.48;0.57;;;9.60;99.90;;;;;;4930056;29;20085;-72
2021/01/21 07:06:01;;;;;;;1.85;0.40;;;9.40;99.90;;;;;;4929891;29;20142;-72
2021/01/21 07:08:28;;;;;;;1.38;0.50;;;9.40;99.90;;;;;;4929742;29;20443;-71
2021/01/21 07:10:59;;;;;;;1.17;0.35;;;9.50;99.90;;;;;;4933347;29;20047;-73
2021/01/21 07:13:30;;;;;;;2.45;0.63;;;9.50;99.90;;;;;;4945499;28;20044;-72
2021/01/21 07:16:04;;;;;;;1.60;0.43;;;9.50;99.90;;;;;;4932222;29;20157;-72
2021/01/21 07:18:35;;;;;;;0.75;0.40;;;9.50;99.90;;;;;;4931021;29;20059;-72
2021/01/21 07:21:08;;;;;;;3.35;0.52;;;9.50;99.90;;;;;;4933608;29;20059;-72
2021/01/21 07:23:39;;;;;;;2.13;0.50;;;9.40;99.90;;;;;;4934393;29;20063;-72
2021/01/21 07:26:26;;;;;;;1.85;0.63;;;9.50;99.90;;;;;;4932377;29;20137;-72
2021/01/21 07:29:08;;;;;;;2.40;0.95;;;9.60;99.90;;;;;;4931444;29;20418;-72
2021/01/21 07:31:56;;;;;;;2.85;0.50;;;9.70;99.90;;;;;;4931238;29;20195;-72
2021/01/21 07:34:49;;;;;;;1.42;0.70;;;9.80;99.90;;;;;;4929714;29;20126;-72
2021/01/21 07:37:23;;;;;;;3.58;0.60;;;9.80;99.90;;;;;;4934586;28;20063;-71
2021/01/21 07:40:07;;;;;;;1.13;0.45;;;9.80;99.90;;;;;;4932050;29;20047;-72
2021/01/21 07:42:33;;;;;;;1.23;0.40;;;9.80;99.90;;;;;;4931240;29;20083;-72
2021/01/21 07:45:20;;;;;;;2.05;0.70;;;9.70;99.90;;;;;;4930543;29;20063;-73
2021/01/21 07:47:48;;;;;;;1.38;0.60;;;9.40;99.90;;;;;;4933163;29;20173;-72
2021/01/21 07:50:25;;;;;;;1.83;0.50;;;9.30;99.90;;;;;;4931610;29;20570;-72
2021/01/21 07:52:53;;;;;;;6.22;0.90;;;9.30;99.90;;;;;;4931165;29;20051;-72
2021/01/21 07:55:26;;;;;;;1.40;0.50;;;9.40;99.90;;;;;;4929402;29;20051;-72
2021/01/21 07:57:53;;;;;;;1.50;0.40;;;9.50;99.90;;;;;;4933878;29;20194;-72
2021/01/21 08:00:20;;;;;;;1.73;0.60;;;9.70;99.90;;;;;;4931548;29;20115;-73
2021/01/21 08:02:49;;;;;;;3.00;0.52;;;9.60;99.90;;;;;;4931981;29;20106;-73
2021/01/21 08:05:17;;;;;;;1.38;0.47;;;9.60;99.90;;;;;;4931181;29;20043;-72
2021/01/21 08:07:55;;;;;;;1.02;0.40;;;9.30;99.90;;;;;;4933462;29;20127;-73
2021/01/21 08:10:27;;;;;;;1.48;0.60;;;9.10;99.90;;;;;;4933602;29;20099;-72
2021/01/21 08:12:58;;;;;;;1.63;0.70;;;9.10;99.90;;;;;;4946841;28;20290;-73
2021/01/21 08:15:28;;;;;;;1.10;0.70;;;9.00;99.90;;;;;;4931001;29;20055;-72
2021/01/21 08:17:55;;;;;;;1.77;0.60;;;9.10;99.90;;;;;;4934023;29;20395;-72
2021/01/21 08:20:24;;;;;;;1.38;0.47;;;9.10;99.90;;;;;;4933256;29;20063;-72
2021/01/21 08:23:09;;;;;;;2.72;0.50;;;9.10;99.90;;;;;;4930761;29;20054;-73
2021/01/21 08:25:47;;;;;;;1.30;0.73;;;9.10;99.90;;;;;;4943454;29;20180;-73
2021/01/21 08:28:19;;;;;;;2.60;0.90;;;8.80;99.90;;;;;;4928196;29;20079;-72
2021/01/21 08:30:48;;;;;;;1.65;0.50;;;8.60;99.90;;;;;;4927102;29;20051;-73
2021/01/21 08:33:28;;;;;;;4.00;1.15;;;8.70;99.90;;;;;;4929261;29;20126;-72
2021/01/21 08:36:20;;;;;;;2.72;1.02;;;8.60;99.90;;;;;;4927549;29;20052;-72
2021/01/21 08:38:47;;;;;;;1.95;0.70;;;8.50;99.90;;;;;;4932843;28;20048;-73
2021/01/21 08:41:14;;;;;;;2.55;1.17;;;8.50;99.90;;;;;;4930684;29;20157;-73
2021/01/21 08:43:45;;;;;;;1.45;0.60;;;8.50;99.90;;;;;;4930343;29;20058;-72
2021/01/21 08:46:12;;;;;;;1.92;0.85;;;8.50;99.90;;;;;;4952172;28;20452;-73
2021/01/21 08:48:38;;;;;;;1.70;0.60;;;8.60;99.90;;;;;;4932130;29;20131;-71
2021/01/21 08:51:44;;;;;;;2.88;0.50;;;8.70;99.90;;;;;;4944995;28;20043;-72
2021/01/21 08:54:14;;;;;;;3.05;0.70;;;8.70;99.90;;;;;;4925662;29;20205;-72
2021/01/21 08:57:04;;;;;;;2.28;0.70;;;8.70;99.90;;;;;;4931121;29;20213;-71
2021/01/21 08:59:32;;;;;;;1.00;0.40;;;8.80;99.90;;;;;;4944940;29;20052;-71
2021/01/21 09:01:58;;;;;;;1.58;0.70;;;8.70;99.90;;;;;;4930192;29;20123;-72
2021/01/21 09:04:32;;;;;;;1.40;0.90;;;8.70;99.90;;;;;;4930398;29;20051;-71
2021/01/21 09:06:59;;;;;;;3.83;0.88;;;8.70;99.90;;;;;;4931942;28;20062;-72
2021/01/21 09:09:37;;;;;;;2.72;0.80;;;8.70;99.90;;;;;;4932793;28;20048;-72
2021/01/21 09:12:17;;;;;;;1.15;0.50;;;8.70;99.90;;;;;;4930363;29;20091;-72
2021/01/21 09:14:44;;;;;;;3.45;0.77;;;8.80;99.90;;;;;;4931525;29;20114;-71
2021/01/21 09:17:17;;;;;;;1.00;0.50;;;8.90;99.90;;;;;;4944286;28;20060;-72
2021/01/21 09:19:44;;;;;;;;;;;8.90;99.90;;;;;;4930399;29;20063;-72
2021/01/21 09:22:14;;;;;;;3.28;0.90;;;8.90;99.90;;;;;;4926830;29;20017;-73
2021/01/21 09:25:01;;;;;;;3.65;0.90;;;8.90;99.90;;;;;;4918723;29;20119;-72
2021/01/21 09:27:33;;;;;;;5.13;0.52;;;8.90;99.90;;;;;;4945738;28;20052;-72
2021/01/21 09:30:06;;;;;;;1.35;0.50;;;9.00;99.90;;;;;;4934272;29;20054;-71
2021/01/21 09:32:34;;;;;;;3.28;0.82;;;9.00;99.90;;;;;;4931101;29;20052;-73
2021/01/21 09:35:03;;;;;;;2.13;0.55;;;8.90;99.90;;;;;;4935917;28;20150;-72
2021/01/21 09:37:33;;;;;;;2.15;0.63;;;8.90;99.90;;;;;;4937458;29;20047;-72
2021/01/21 09:40:00;;;;;;;2.40;0.30;;;8.70;99.90;;;;;;4941434;29;20060;-72
2021/01/21 09:42:26;;;;;;;2.28;0.40;;;8.10;99.90;;;;;;4935320;29;20547;-72
2021/01/21 09:44:53;;;;;;;2.13;0.22;;;7.70;99.90;;;;;;4940920;29;20146;-72
2021/01/21 09:47:19;;;;;;;2.72;0.47;;;7.40;99.90;;;;;;4935022;29;20047;-72
2021/01/21 09:49:46;;;;;;;1.30;0.40;;;7.30;99.90;;;;;;4934945;29;20056;-71
2021/01/21 09:52:13;;;;;;;0.52;0.28;;;7.10;99.90;;;;;;4948036;29;20137;-71
2021/01/21 09:54:40;;;;;;;1.50;0.35;;;6.90;99.90;;;;;;4932011;28;20516;-71
2021/01/21 09:57:07;;;;;;;1.25;0.30;;;6.90;99.90;;;;;;4934308;29;20076;-71
2021/01/21 09:59:34;;;;;;;2.08;0.40;;;6.80;99.90;;;;;;4937813;29;20122;-71
2021/01/21 10:02:01;;;;;;;0.95;0.40;;;6.70;99.90;;;;;;4940604;28;20051;-71
2021/01/21 10:04:28;;;;;;;1.95;0.30;;;6.60;99.90;;;;;;4932093;29;20059;-72
2021/01/21 10:06:54;;;;;;;4.63;0.30;;;6.50;99.90;;;;;;4931802;29;20079;-72
2021/01/21 10:09:20;;;;;;;0.95;0.35;;;6.50;99.90;;;;;;4931427;29;20056;-72
2021/01/21 10:11:47;;;;;;;0.98;0.30;;;6.40;99.90;;;;;;4924933;29;20083;-72
2021/01/21 10:14:13;;;;;;;2.00;0.47;;;6.40;99.90;;;;;;4927875;29;20119;-72
2021/01/21 10:16:40;;;;;;;0.77;0.38;;;6.40;99.90;;;;;;4947465;28;20048;-71
2021/01/21 10:19:09;;;;;;;1.55;0.50;;;6.30;99.90;;;;;;4932156;29;20058;-72
2021/01/21 10:21:36;;;;;;;3.80;0.47;;;6.30;99.90;;;;;;4929246;29;20131;-72
2021/01/21 10:24:04;;;;;;;1.13;0.35;;;6.20;99.90;;;;;;4928964;29;20126;-72
2021/01/21 10:26:30;;;;;;;1.13;0.45;;;6.20;99.90;;;;;;4932693;29;20090;-71
2021/01/21 10:28:57;;;;;;;0.98;0.30;;;6.20;99.90;;;;;;4929295;29;20503;-72
2021/01/21 10:31:23;;;;;;;2.03;0.50;;;6.10;99.90;;;;;;4941203;29;20110;-72
2021/01/21 10:33:49;;;;;;;3.50;0.45;;;6.20;99.90;;;;;;4951594;28;20056;-72
2021/01/21 10:36:16;;;;;;;1.15;0.40;;;6.10;99.90;;;;;;4927757;29;20118;-72
2021/01/21 10:38:42;;;;;;;2.53;0.77;;;6.10;99.90;;;;;;4933544;29;20055;-72
2021/01/21 10:41:09;;;;;;;2.65;0.50;;;6.10;99.90;;;;;;4933850;29;20048;-72
2021/01/21 10:43:36;;;;;;;2.20;0.40;;;6.20;99.90;;;;;;4931976;29;20075;-72
2021/01/21 10:46:03;;;;;;;2.63;1.05;;;6.20;99.90;;;;;;4931398;29;20365;-72
2021/01/21 10:48:30;;;;;;;2.17;0.63;;;6.20;99.90;;;;;;4930210;29;20059;-72
2021/01/21 10:50:57;;;;;;;4.20;0.77;;;6.20;99.90;;;;;;4937258;29;20047;-72
2021/01/21 10:53:23;;;;;;;4.78;0.60;;;6.20;99.90;;;;;;4933499;29;20135;-72
2021/01/21 10:55:50;;;;;;;4.63;0.55;;;6.30;99.90;;;;;;4917341;29;20428;-72
2021/01/21 10:58:16;;;;;;;4.30;0.47;;;6.20;99.90;;;;;;4931897;29;20151;-72
2021/01/21 11:00:44;;;;;;;3.17;0.45;;;6.20;99.90;;;;;;4929783;29;20534;-72
2021/01/21 11:03:11;;;;;;;3.25;0.70;;;6.20;99.90;;;;;;4929914;29;20625;-72
2021/01/21 11:05:40;;;;;;;3.38;0.40;;;6.20;99.90;;;;;;4944766;28;20079;-72
2021/01/21 11:08:07;;;;;;;2.88;0.50;;;6.20;99.90;;;;;;4932293;29;20048;-73
2021/01/21 11:10:35;;;;;;;3.45;0.30;;;6.20;99.90;;;;;;4931647;29;20091;-71
2021/01/21 11:13:05;;;;;;;2.55;0.40;;;6.20;99.90;;;;;;4930101;29;20048;-73
2021/01/21 11:15:31;;;;;;;3.90;0.50;;;6.10;99.90;;;;;;4931485;29;20210;-73
2021/01/21 11:17:58;;;;;;;2.63;0.90;;;6.10;99.90;;;;;;4925367;29;20044;-72
2021/01/21 11:20:25;;;;;;;1.38;0.47;;;6.10;99.90;;;;;;4931926;29;20098;-73
2021/01/21 11:22:51;;;;;;;6.53;0.70;;;6.00;99.90;;;;;;4932329;29;20051;-74
2021/01/21 11:25:23;;;;;;;4.95;0.80;;;6.10;99.90;;;;;;4931923;29;20423;-74
2021/01/21 11:28:04;;;;;;;2.10;0.50;;;6.10;99.90;;;;;;4931489;29;20131;-73
2021/01/21 11:30:31;;;;;;;5.28;0.73;;;6.10;99.90;;;;;;4931251;29;20051;-74
2021/01/21 11:32:58;;;;;;;4.70;0.75;;;6.10;99.90;;;;;;4928043;29;20050;-73
2021/01/21 11:35:25;;;;;;;2.47;0.50;;;6.20;99.90;;;;;;4930742;29;20478;-74
2021/01/21 11:37:52;;;;;;;4.55;1.00;;;6.20;99.90;;;;;;4932041;29;20052;-72
2021/01/21 11:40:19;;;;;;;3.60;0.70;;;6.20;99.90;;;;;;4927801;29;20055;-71
2021/01/21 11:42:45;;;;;;;9.57;1.20;;;6.20;99.90;;;;;;4931997;29;20059;-72
2021/01/21 11:45:12;;;;;;;2.70;0.70;;;6.20;99.90;;;;;;4943419;28;20051;-74
2021/01/21 11:47:39;;;;;;;2.55;0.50;;;6.20;99.90;;;;;;4928670;29;20051;-74
2021/01/21 11:50:15;;;;;;;2.28;0.60;;;6.20;99.90;;;;;;4930188;29;20047;-74
2021/01/21 11:52:43;;;;;;;5.75;0.88;;;6.20;99.90;;;;;;4928039;29;20058;-73
2021/01/21 11:55:10;;;;;;;7.63;0.88;;;6.30;99.90;;;;;;4931356;29;20071;-72
2021/01/21 11:57:38;;;;;;;3.20;0.70;;;6.20;99.90;;;;;;4930085;29;20166;-72
2021/01/21 12:00:06;;;;;;;2.97;0.70;;;6.20;99.90;;;;;;4928243;29;20098;-73
2021/01/21 12:02:33;;;;;;;3.97;0.70;;;6.10;99.90;;;;;;4928672;29;20134;-73
2021/01/21 12:05:00;;;;;;;3.03;0.50;;;6.10;99.90;;;;;;4929885;29;20139;-73
2021/01/21 12:07:26;;;;;;;3.15;0.55;;;6.10;99.90;;;;;;4929990;29;20061;-73
2021/01/21 12:09:53;;;;;;;3.33;0.50;;;6.10;99.90;;;;;;4926826;29;20416;-74
2021/01/21 12:12:22;;;;;;;4.65;0.70;;;6.10;99.90;;;;;;4936306;29;20047;-73
2021/01/21 12:14:49;;;;;;;6.45;2.13;;;6.10;99.90;;;;;;4928106;29;20040;-73
2021/01/21 12:17:15;;;;;;;4.35;0.73;;;6.20;99.90;;;;;;4930323;29;20139;-73
2021/01/21 12:19:43;;;;;;;1.52;0.40;;;6.30;99.90;;;;;;4929842;29;20399;-75
2021/01/21 12:22:09;;;;;;;3.92;0.65;;;6.30;99.90;;;;;;4931184;29;20056;-74
2021/01/21 12:24:35;;;;;;;3.78;0.82;;;6.30;99.90;;;;;;4927574;29;20530;-73
2021/01/21 12:27:02;;;;;;;5.32;0.75;;;6.40;99.90;;;;;;4930997;29;20055;-72
2021/01/21 12:29:30;;;;;;;8.77;0.98;;;6.40;99.90;;;;;;4931673;29;20051;-73
2021/01/21 12:31:57;;;;;;;4.13;0.80;;;6.40;99.90;;;;;;4926726;29;20135;-73
2021/01/21 12:34:26;;;;;;;7.50;0.80;;;6.40;99.90;;;;;;4930271;29;20459;-72
2021/01/21 12:36:53;;;;;;;6.97;0.80;;;6.50;99.90;;;;;;4928699;29;20078;-73
2021/01/21 12:39:20;;;;;;;5.13;0.82;;;6.60;99.90;;;;;;4931097;29;20612;-72
2021/01/21 12:41:46;;;;;;;2.35;0.57;;;6.60;99.90;;;;;;4913319;29;20456;-73
2021/01/21 12:44:12;;;;;;;2.33;0.60;;;6.70;99.90;;;;;;4924554;29;20052;-73
2021/01/21 12:46:39;;;;;;;7.28;0.60;;;6.70;99.90;;;;;;4930146;29;20139;-73
2021/01/21 12:49:06;;;;;;;10.15;1.00;;;6.80;99.90;;;;;;4928920;29;20107;-73
2021/01/21 12:51:32;;;;;;;7.35;0.68;;;6.90;99.90;;;;;;4928858;29;20254;-73
2021/01/21 12:53:59;;;;;;;3.05;0.55;;;6.90;99.90;;;;;;4931242;29;20107;-74
2021/01/21 12:56:25;;;;;;;5.10;0.88;;;7.00;99.90;;;;;;4931518;29;20048;-73
2021/01/21 12:58:51;;;;;;;3.28;0.60;;;7.10;99.90;;;;;;4930398;29;20166;-73
2021/01/21 13:01:18;;;;;;;3.53;0.55;;;7.20;99.90;;;;;;4931544;29;20090;-74
2021/01/21 13:03:44;;;;;;;6.53;1.02;;;7.20;99.90;;;;;;4931508;29;20421;-74
2021/01/21 13:06:11;;;;;;;8.05;1.00;;;7.20;99.90;;;;;;4926023;29;20079;-73
2021/01/21 13:08:38;;;;;;;6.30;1.00;;;7.20;99.90;;;;;;4928106;28;20047;-72